createdAt,value
2022-09-20T00:00:54.152Z,1013.06
2022-09-20T00:01:53.410Z,1013.08
2022-09-20T00:02:53.557Z,1013.07
2022-09-20T00:03:53.722Z,1013.04
2022-09-20T00:04:53.901Z,1013.05
2022-09-20T00:05:54.052Z,1013.05
2022-09-20T00:06:54.214Z,1013.07
2022-09-20T00:07:54.359Z,1013.03
2022-09-20T00:08:54.530Z,1012.96
2022-09-20T00:09:55.132Z,1013.01
2022-09-20T00:10:54.910Z,1013.06
2022-09-20T00:11:55.065Z,1012.99
2022-09-20T00:12:55.208Z,1013.01
2022-09-20T00:13:55.386Z,1013.01
2022-09-20T00:14:55.544Z,1013.04
2022-09-20T00:15:55.703Z,1013.03
2022-09-20T00:16:55.927Z,1012.99
2022-09-20T00:17:56.007Z,1012.96
2022-09-20T00:18:57.123Z,1013.01
2022-09-20T00:19:56.386Z,1013.03
2022-09-20T00:20:56.534Z,1013.02
2022-09-20T00:21:56.741Z,1013.05
2022-09-20T00:22:56.877Z,1013.00
2022-09-20T00:23:57.695Z,1013.05
2022-09-20T00:24:57.270Z,1013.04
2022-09-20T00:25:57.433Z,1013.09
2022-09-20T00:26:57.639Z,1013.08
2022-09-20T00:27:57.795Z,1013.05
2022-09-20T00:28:57.949Z,1013.18
2022-09-20T00:29:58.131Z,1013.07
2022-09-20T00:30:59.125Z,1013.08
2022-09-20T00:31:58.712Z,1013.07
2022-09-20T00:32:58.672Z,1013.14
2022-09-20T00:33:58.808Z,1013.06
2022-09-20T00:34:59.633Z,1013.10
2022-09-20T00:35:59.149Z,1013.14
2022-09-20T00:36:59.295Z,1013.09
2022-09-20T00:37:59.458Z,1013.12
2022-09-20T00:39:00.149Z,1013.09
2022-09-20T00:40:00.251Z,1013.10
2022-09-20T00:41:00.635Z,1013.08
2022-09-20T00:42:00.629Z,1013.13
2022-09-20T00:43:00.281Z,1013.07
2022-09-20T00:44:00.410Z,1013.21
2022-09-20T00:45:00.579Z,1013.22
2022-09-20T00:46:01.725Z,1013.09
2022-09-20T00:47:00.933Z,1013.05
2022-09-20T00:48:01.065Z,1013.14
2022-09-20T00:49:02.128Z,1013.11
2022-09-20T00:50:01.645Z,1013.09
2022-09-20T00:51:01.509Z,1013.16
2022-09-20T00:52:01.632Z,1013.06
2022-09-20T00:53:01.773Z,1013.10
2022-09-20T00:54:01.934Z,1013.04
2022-09-20T00:55:02.106Z,1013.05
2022-09-20T00:56:03.130Z,1013.04
2022-09-20T00:57:02.644Z,1013.07
2022-09-20T00:58:02.659Z,1013.03
2022-09-20T00:59:02.809Z,1013.04
2022-09-20T01:00:03.638Z,1013.06
2022-09-20T01:01:03.212Z,1013.05
2022-09-20T01:02:03.382Z,1013.04
2022-09-20T01:03:03.462Z,1013.00
2022-09-20T01:04:03.594Z,1013.01
2022-09-20T01:05:03.748Z,1012.97
2022-09-20T01:06:03.886Z,1012.99
2022-09-20T01:07:04.063Z,1012.92
2022-09-20T01:08:04.199Z,1012.99
2022-09-20T01:09:05.135Z,1012.98
2022-09-20T01:10:04.489Z,1012.92
2022-09-20T01:11:04.630Z,1012.96
2022-09-20T01:12:05.659Z,1012.95
2022-09-20T01:13:04.894Z,1012.98
2022-09-20T01:14:05.028Z,1012.99
2022-09-20T01:15:05.164Z,1012.93
2022-09-20T01:16:05.355Z,1012.94
2022-09-20T01:17:05.554Z,1012.94
2022-09-20T01:18:05.752Z,1012.96
2022-09-20T01:19:05.995Z,1012.90
2022-09-20T01:20:06.081Z,1012.90
2022-09-20T01:21:06.224Z,1012.92
2022-09-20T01:22:06.361Z,1012.98
2022-09-20T01:23:06.650Z,1012.97
2022-09-20T01:24:06.649Z,1012.96
2022-09-20T01:25:07.155Z,1012.95
2022-09-20T01:26:07.041Z,1012.97
2022-09-20T01:27:07.160Z,1012.96
2022-09-20T01:28:07.279Z,1012.99
2022-09-20T01:29:07.548Z,1012.99
2022-09-20T01:30:07.709Z,1012.98
2022-09-20T01:31:08.180Z,1012.97
2022-09-20T01:32:08.122Z,1012.94
2022-09-20T01:33:08.150Z,1013.02
2022-09-20T01:34:08.373Z,1012.96
2022-09-20T01:35:08.442Z,1012.99
2022-09-20T01:36:08.587Z,1012.99
2022-09-20T01:37:08.746Z,1012.98
2022-09-20T01:38:08.871Z,1013.00
2022-09-20T01:39:09.640Z,1012.98
2022-09-20T01:40:09.707Z,1013.00
2022-09-20T01:41:10.144Z,1013.04
2022-09-20T01:42:10.146Z,1013.05
2022-09-20T01:43:09.540Z,1012.99
2022-09-20T01:44:09.684Z,1013.00
2022-09-20T01:45:10.153Z,1012.95
2022-09-20T01:46:10.128Z,1013.01
2022-09-20T01:47:11.142Z,1013.03
2022-09-20T01:48:11.143Z,1013.01
2022-09-20T01:49:10.635Z,1013.03
2022-09-20T01:50:10.775Z,1012.98
2022-09-20T01:51:10.946Z,1013.05
2022-09-20T01:52:11.065Z,1013.07
2022-09-20T01:53:11.200Z,1013.02
2022-09-20T01:54:11.362Z,1012.98
2022-09-20T01:55:12.144Z,1013.08
2022-09-20T01:56:11.669Z,1013.07
2022-09-20T01:57:11.795Z,1013.07
2022-09-20T01:58:12.159Z,1013.08
2022-09-20T01:59:23.649Z,1013.05
2022-09-20T02:00:14.377Z,1013.10
2022-09-20T02:01:12.664Z,1013.09
2022-09-20T02:02:12.870Z,1013.09
2022-09-20T02:03:13.047Z,1013.06
2022-09-20T02:04:14.149Z,1013.11
2022-09-20T02:05:14.145Z,1013.02
2022-09-20T02:06:13.502Z,1013.07
2022-09-20T02:07:13.735Z,1013.02
2022-09-20T02:08:13.873Z,1013.07
2022-09-20T02:09:14.009Z,1013.00
2022-09-20T02:10:14.117Z,1012.99
2022-09-20T02:11:15.361Z,1013.02
2022-09-20T02:12:14.561Z,1013.02
2022-09-20T02:13:15.185Z,1013.04
2022-09-20T02:14:15.030Z,1013.01
2022-09-20T02:15:15.256Z,1012.99
2022-09-20T02:16:15.527Z,1013.09
2022-09-20T02:17:16.653Z,1013.00
2022-09-20T02:18:15.923Z,1013.07
2022-09-20T02:19:16.060Z,1013.01
2022-09-20T02:20:16.223Z,1013.07
2022-09-20T02:21:17.151Z,1013.04
2022-09-20T02:22:16.515Z,1013.05
2022-09-20T02:23:16.714Z,1013.04
2022-09-20T02:24:17.661Z,1013.08
2022-09-20T02:25:17.173Z,1013.10
2022-09-20T02:26:17.344Z,1013.06
2022-09-20T02:27:17.477Z,1013.07
2022-09-20T02:28:18.656Z,1013.05
2022-09-20T02:29:17.896Z,1013.10
2022-09-20T02:30:18.040Z,1013.04
2022-09-20T02:31:19.213Z,1013.08
2022-09-20T02:32:18.389Z,1013.08
2022-09-20T02:33:18.669Z,1013.07
2022-09-20T02:34:18.695Z,1013.08
2022-09-20T02:35:18.852Z,1013.08
2022-09-20T02:36:19.001Z,1013.08
2022-09-20T02:37:19.148Z,1013.08
2022-09-20T02:38:20.155Z,1013.05
2022-09-20T02:39:19.521Z,1013.09
2022-09-20T02:40:20.261Z,1013.11
2022-09-20T02:41:20.170Z,1013.15
2022-09-20T02:42:20.660Z,1013.11
2022-09-20T02:43:20.697Z,1013.09
2022-09-20T02:44:20.323Z,1013.18
2022-09-20T02:45:20.473Z,1013.15
2022-09-20T02:46:21.695Z,1013.10
2022-09-20T02:47:20.862Z,1013.14
2022-09-20T02:48:21.023Z,1013.12
2022-09-20T02:49:21.186Z,1013.14
2022-09-20T02:50:21.325Z,1013.11
2022-09-20T02:51:21.469Z,1013.07
2022-09-20T02:52:21.600Z,1013.11
2022-09-20T02:53:21.758Z,1013.08
2022-09-20T02:54:21.908Z,1013.07
2022-09-20T02:55:22.038Z,1013.08
2022-09-20T02:56:22.192Z,1013.12
2022-09-20T02:57:22.321Z,1013.14
2022-09-20T02:58:22.454Z,1013.16
2022-09-20T02:59:22.598Z,1013.17
2022-09-20T03:00:23.737Z,1013.11
2022-09-20T03:01:23.018Z,1013.08
2022-09-20T03:02:23.270Z,1013.11
2022-09-20T03:03:24.167Z,1013.17
2022-09-20T03:04:23.548Z,1013.12
2022-09-20T03:05:23.677Z,1013.05
2022-09-20T03:06:23.805Z,1013.09
2022-09-20T03:07:23.953Z,1013.12
2022-09-20T03:08:25.168Z,1013.12
2022-09-20T03:09:24.680Z,1013.09
2022-09-20T03:10:24.554Z,1013.09
2022-09-20T03:11:25.664Z,1013.03
2022-09-20T03:12:24.906Z,1013.01
2022-09-20T03:13:25.664Z,1013.07
2022-09-20T03:14:25.170Z,1013.07
2022-09-20T03:15:26.335Z,1013.05
2022-09-20T03:16:25.517Z,1013.04
2022-09-20T03:17:25.695Z,1013.00
2022-09-20T03:18:26.673Z,1012.96
2022-09-20T03:19:26.074Z,1012.97
2022-09-20T03:20:26.233Z,1012.98
2022-09-20T03:21:26.371Z,1012.98
2022-09-20T03:22:26.524Z,1012.99
2022-09-20T03:23:27.169Z,1013.00
2022-09-20T03:24:27.202Z,1013.07
2022-09-20T03:25:26.988Z,1013.01
2022-09-20T03:26:27.667Z,1012.97
2022-09-20T03:27:27.313Z,1013.03
2022-09-20T03:28:27.476Z,1013.02
2022-09-20T03:29:28.171Z,1013.01
2022-09-20T03:30:27.800Z,1013.03
2022-09-20T03:31:28.010Z,1013.02
2022-09-20T03:32:29.182Z,1013.02
2022-09-20T03:33:29.171Z,1012.96
2022-09-20T03:34:29.170Z,1012.97
2022-09-20T03:35:29.170Z,1013.02
2022-09-20T03:36:28.812Z,1013.02
2022-09-20T03:37:28.969Z,1013.01
2022-09-20T03:38:29.160Z,1012.99
2022-09-20T03:39:30.172Z,1013.02
2022-09-20T03:40:29.642Z,1012.98
2022-09-20T03:41:29.728Z,1012.96
2022-09-20T03:42:30.190Z,1013.01
2022-09-20T03:43:30.723Z,1012.98
2022-09-20T03:44:30.222Z,1013.05
2022-09-20T03:45:30.415Z,1012.99
2022-09-20T03:46:30.572Z,1012.97
2022-09-20T03:47:30.724Z,1013.02
2022-09-20T03:48:30.862Z,1013.01
2022-09-20T03:49:31.054Z,1012.97
2022-09-20T03:50:31.217Z,1013.02
2022-09-20T03:51:34.093Z,1013.01
2022-09-20T03:52:32.621Z,1013.05
2022-09-20T03:53:31.737Z,1012.97
2022-09-20T03:54:31.911Z,1012.99
2022-09-20T03:55:32.028Z,1013.01
2022-09-20T03:56:32.269Z,1013.03
2022-09-20T03:57:33.173Z,1013.04
2022-09-20T03:58:32.655Z,1013.03
2022-09-20T03:59:33.196Z,1013.04
2022-09-20T04:00:32.957Z,1013.01
2022-09-20T04:01:33.201Z,1013.05
2022-09-20T04:02:33.342Z,1013.04
2022-09-20T04:03:33.399Z,1013.06
2022-09-20T04:04:33.643Z,1013.06
2022-09-20T04:05:33.919Z,1013.08
2022-09-20T04:06:34.032Z,1013.11
2022-09-20T04:07:34.157Z,1013.15
2022-09-20T04:08:38.085Z,1013.16
2022-09-20T04:09:36.525Z,1013.19
2022-09-20T04:10:34.748Z,1013.18
2022-09-20T04:11:34.902Z,1013.22
2022-09-20T04:12:35.033Z,1013.18
2022-09-20T04:13:35.160Z,1013.23
2022-09-20T04:14:36.179Z,1013.20
2022-09-20T04:15:36.182Z,1013.21
2022-09-20T04:16:35.711Z,1013.17
2022-09-20T04:17:35.889Z,1013.23
2022-09-20T04:18:36.680Z,1013.25
2022-09-20T04:19:36.175Z,1013.20
2022-09-20T04:20:36.319Z,1013.17
2022-09-20T04:21:36.501Z,1013.27
2022-09-20T04:22:36.624Z,1013.20
2022-09-20T04:23:36.797Z,1013.26
2022-09-20T04:24:36.944Z,1013.23
2022-09-20T04:25:39.755Z,1013.26
2022-09-20T04:26:38.209Z,1013.18
2022-09-20T04:27:37.473Z,1013.22
2022-09-20T04:28:38.181Z,1013.25
2022-09-20T04:29:37.793Z,1013.29
2022-09-20T04:30:37.928Z,1013.26
2022-09-20T04:31:38.222Z,1013.29
2022-09-20T04:32:38.310Z,1013.23
2022-09-20T04:33:39.183Z,1013.24
2022-09-20T04:34:38.676Z,1013.23
2022-09-20T04:35:38.825Z,1013.28
2022-09-20T04:36:38.981Z,1013.28
2022-09-20T04:37:39.169Z,1013.26
2022-09-20T04:38:39.354Z,1013.25
2022-09-20T04:39:39.507Z,1013.30
2022-09-20T04:40:39.725Z,1013.31
2022-09-20T04:41:40.709Z,1013.25
2022-09-20T04:42:39.984Z,1013.28
2022-09-20T04:43:40.175Z,1013.31
2022-09-20T04:44:41.189Z,1013.24
2022-09-20T04:45:40.625Z,1013.32
2022-09-20T04:46:40.806Z,1013.28
2022-09-20T04:47:40.983Z,1013.34
2022-09-20T04:48:41.691Z,1013.30
2022-09-20T04:49:42.189Z,1013.34
2022-09-20T04:50:41.440Z,1013.34
2022-09-20T04:51:41.587Z,1013.36
2022-09-20T04:52:41.759Z,1013.41
2022-09-20T04:53:41.923Z,1013.34
2022-09-20T04:54:42.092Z,1013.39
2022-09-20T04:55:42.265Z,1013.41
2022-09-20T04:56:42.404Z,1013.36
2022-09-20T04:57:42.587Z,1013.43
2022-09-20T04:58:43.692Z,1013.44
2022-09-20T04:59:42.928Z,1013.44
2022-09-20T05:00:43.098Z,1013.44
2022-09-20T05:01:43.377Z,1013.46
2022-09-20T05:02:43.513Z,1013.50
2022-09-20T05:03:43.563Z,1013.44
2022-09-20T05:04:43.704Z,1013.42
2022-09-20T05:05:43.853Z,1013.43
2022-09-20T05:06:44.001Z,1013.48
2022-09-20T05:07:44.155Z,1013.45
2022-09-20T05:08:44.321Z,1013.50
2022-09-20T05:09:44.463Z,1013.54
2022-09-20T05:10:44.582Z,1013.46
2022-09-20T05:11:44.751Z,1013.49
2022-09-20T05:12:44.938Z,1013.51
2022-09-20T05:13:45.696Z,1013.54
2022-09-20T05:14:46.196Z,1013.60
2022-09-20T05:15:45.439Z,1013.50
2022-09-20T05:16:45.618Z,1013.51
2022-09-20T05:17:45.833Z,1013.58
2022-09-20T05:18:46.706Z,1013.54
2022-09-20T05:19:46.222Z,1013.53
2022-09-20T05:20:46.376Z,1013.50
2022-09-20T05:21:46.577Z,1013.53
2022-09-20T05:22:46.751Z,1013.53
2022-09-20T05:23:46.921Z,1013.50
2022-09-20T05:24:47.068Z,1013.53
2022-09-20T05:25:48.197Z,1013.54
2022-09-20T05:26:47.713Z,1013.54
2022-09-20T05:27:48.203Z,1013.57
2022-09-20T05:28:47.829Z,1013.57
2022-09-20T05:29:47.983Z,1013.57
2022-09-20T05:30:48.167Z,1013.56
2022-09-20T05:31:48.367Z,1013.56
2022-09-20T05:32:49.198Z,1013.57
2022-09-20T05:33:49.200Z,1013.53
2022-09-20T05:34:48.812Z,1013.51
2022-09-20T05:35:48.932Z,1013.55
2022-09-20T05:36:49.095Z,1013.56
2022-09-20T05:37:49.259Z,1013.53
2022-09-20T05:38:49.383Z,1013.56
2022-09-20T05:39:49.553Z,1013.50
2022-09-20T05:40:49.709Z,1013.50
2022-09-20T05:41:49.832Z,1013.54
2022-09-20T05:42:50.984Z,1013.55
2022-09-20T05:43:50.704Z,1013.58
2022-09-20T05:44:50.201Z,1013.58
2022-09-20T05:45:50.382Z,1013.52
2022-09-20T05:46:50.711Z,1013.55
2022-09-20T05:47:50.706Z,1013.59
2022-09-20T05:48:51.708Z,1013.50
2022-09-20T05:49:51.058Z,1013.56
2022-09-20T05:50:53.021Z,1013.60
2022-09-20T05:51:51.377Z,1013.52
2022-09-20T05:52:52.209Z,1013.57
2022-09-20T05:53:51.712Z,1013.61
2022-09-20T05:54:51.851Z,1013.52
2022-09-20T05:55:52.005Z,1013.55
2022-09-20T05:56:52.720Z,1013.56
2022-09-20T05:57:52.434Z,1013.57
2022-09-20T05:58:52.682Z,1013.56
2022-09-20T05:59:52.919Z,1013.61
2022-09-20T06:00:53.762Z,1013.51
2022-09-20T06:01:53.301Z,1013.57
2022-09-20T06:02:53.448Z,1013.58
2022-09-20T06:03:53.593Z,1013.61
2022-09-20T06:04:53.719Z,1013.61
2022-09-20T06:05:53.829Z,1013.50
2022-09-20T06:06:54.713Z,1013.49
2022-09-20T06:07:54.219Z,1013.45
2022-09-20T06:08:55.288Z,1013.46
2022-09-20T06:09:55.223Z,1013.53
2022-09-20T06:10:55.207Z,1013.48
2022-09-20T06:11:55.708Z,1013.49
2022-09-20T06:12:55.196Z,1013.49
2022-09-20T06:13:55.328Z,1013.46
2022-09-20T06:14:56.208Z,1013.43
2022-09-20T06:15:55.696Z,1013.42
2022-09-20T06:16:56.708Z,1013.42
2022-09-20T06:17:55.945Z,1013.31
2022-09-20T06:18:56.106Z,1013.30
2022-09-20T06:19:57.211Z,1013.25
2022-09-20T06:20:56.412Z,1013.28
2022-09-20T06:22:00.889Z,1013.18
2022-09-20T06:22:58.237Z,1013.24
2022-09-20T06:23:56.819Z,1013.26
2022-09-20T06:24:56.978Z,1013.25
2022-09-20T06:25:57.128Z,1013.27
2022-09-20T06:26:58.215Z,1013.25
2022-09-20T06:27:57.440Z,1013.16
2022-09-20T06:28:58.477Z,1013.18
2022-09-20T06:29:58.871Z,1013.19
2022-09-20T06:30:58.296Z,1013.14
2022-09-20T06:31:58.196Z,1013.08
2022-09-20T06:32:59.215Z,1012.94
2022-09-20T06:33:59.227Z,1012.98
2022-09-20T06:34:58.832Z,1012.89
2022-09-20T06:35:59.381Z,1012.70
2022-09-20T06:37:00.165Z,1012.69
2022-09-20T06:37:59.416Z,1012.50
2022-09-20T06:38:59.506Z,1012.41
2022-09-20T06:40:00.297Z,1012.33
2022-09-20T06:40:59.823Z,1011.93
2022-09-20T06:42:00.051Z,1010.53
2022-09-20T06:43:00.296Z,1010.08
2022-09-20T06:44:00.423Z,1010.13
2022-09-20T06:45:00.589Z,1010.26
2022-09-20T06:46:00.749Z,1010.45
2022-09-20T06:47:01.716Z,1010.45
2022-09-20T06:48:01.719Z,1010.62
2022-09-20T06:49:01.232Z,1010.77
2022-09-20T06:50:01.415Z,1010.89
2022-09-20T06:51:02.217Z,1011.12
2022-09-20T06:52:01.696Z,1011.16
2022-09-20T06:53:01.871Z,1011.26
2022-09-20T06:54:02.032Z,1011.34
2022-09-20T06:55:02.229Z,1011.47
2022-09-20T06:56:03.225Z,1011.56
2022-09-20T06:57:02.594Z,1011.61
2022-09-20T06:58:02.739Z,1011.68
2022-09-20T06:59:02.930Z,1011.61
2022-09-20T07:00:03.083Z,1011.40
2022-09-20T07:01:03.767Z,1011.40
2022-09-20T07:02:03.468Z,1011.45
2022-09-20T07:03:03.681Z,1011.40
2022-09-20T07:04:03.825Z,1011.49
2022-09-20T07:05:04.023Z,1011.52
2022-09-20T07:06:04.203Z,1011.57
2022-09-20T07:07:09.313Z,1011.63
2022-09-20T07:08:05.477Z,1011.71
2022-09-20T07:09:04.593Z,1011.74
2022-09-20T07:10:04.758Z,1011.88
2022-09-20T07:11:04.925Z,1011.90
2022-09-20T07:12:05.100Z,1011.91
2022-09-20T07:13:05.230Z,1012.01
2022-09-20T07:14:05.420Z,1012.01
2022-09-20T07:15:06.240Z,1012.14
2022-09-20T07:16:05.739Z,1012.16
2022-09-20T07:17:05.869Z,1012.17
2022-09-20T07:18:06.019Z,1012.28
2022-09-20T07:19:06.156Z,1012.33
2022-09-20T07:20:06.281Z,1012.34
2022-09-20T07:21:06.412Z,1012.36
2022-09-20T07:22:06.571Z,1012.35
2022-09-20T07:23:06.723Z,1012.40
2022-09-20T07:24:06.832Z,1012.38
2022-09-20T07:25:06.961Z,1012.48
2022-09-20T07:26:07.112Z,1012.43
2022-09-20T07:27:07.300Z,1012.45
2022-09-20T07:28:07.453Z,1012.32
2022-09-20T07:29:07.641Z,1012.25
2022-09-20T07:30:08.736Z,1012.23
2022-09-20T07:31:07.965Z,1012.22
2022-09-20T07:32:08.313Z,1012.19
2022-09-20T07:33:08.323Z,1012.27
2022-09-20T07:34:08.455Z,1012.20
2022-09-20T07:35:08.593Z,1012.27
2022-09-20T07:36:08.715Z,1012.18
2022-09-20T07:37:08.977Z,1012.14
2022-09-20T07:38:09.122Z,1012.10
2022-09-20T07:39:10.231Z,1012.07
2022-09-20T07:40:09.560Z,1012.02
2022-09-20T07:41:09.633Z,1012.05
2022-09-20T07:42:09.780Z,1012.00
2022-09-20T07:43:09.923Z,1011.96
2022-09-20T07:44:10.092Z,1011.91
2022-09-20T07:45:10.280Z,1011.92
2022-09-20T07:46:11.259Z,1011.86
2022-09-20T07:47:10.643Z,1011.83
2022-09-20T07:48:10.775Z,1011.89
2022-09-20T07:49:11.742Z,1011.86
2022-09-20T07:50:11.164Z,1011.83
2022-09-20T07:51:11.289Z,1011.91
2022-09-20T07:52:11.438Z,1011.89
2022-09-20T07:53:11.553Z,1011.95
2022-09-20T07:54:11.692Z,1011.94
2022-09-20T07:55:12.762Z,1011.99
2022-09-20T07:56:11.980Z,1012.03
2022-09-20T07:57:12.124Z,1012.03
2022-09-20T07:58:12.278Z,1011.99
2022-09-20T07:59:12.765Z,1011.73
2022-09-20T08:00:12.618Z,1011.64
2022-09-20T08:01:12.787Z,1011.31
2022-09-20T08:02:13.792Z,1011.15
2022-09-20T08:03:13.183Z,1011.04
2022-09-20T08:04:13.428Z,1010.90
2022-09-20T08:05:14.544Z,1010.73
2022-09-20T08:06:13.747Z,1010.55
2022-09-20T08:07:14.000Z,1010.40
2022-09-20T08:08:14.127Z,1010.21
2022-09-20T08:09:14.364Z,1010.08
2022-09-20T08:10:14.494Z,1010.03
2022-09-20T08:11:14.625Z,1010.17
2022-09-20T08:14:17.172Z,1010.25
2022-09-20T08:15:15.294Z,1010.33
2022-09-20T08:16:16.304Z,1010.43
2022-09-20T08:17:15.684Z,1010.53
2022-09-20T08:18:15.790Z,1010.61
2022-09-20T08:19:15.907Z,1010.62
2022-09-20T08:20:16.745Z,1010.60
2022-09-20T08:21:16.746Z,1010.65
2022-09-20T08:22:16.363Z,1010.59
2022-09-20T08:23:24.262Z,1010.08
2022-09-20T08:24:18.726Z,1009.67
2022-09-20T08:25:16.953Z,1009.69
2022-09-20T08:26:17.102Z,1009.85
2022-09-20T08:27:17.256Z,1009.92
2022-09-20T08:28:17.369Z,1009.96
2022-09-20T08:29:18.267Z,1010.08
2022-09-20T08:30:18.752Z,1010.24
2022-09-20T08:31:18.076Z,1010.29
2022-09-20T08:32:18.262Z,1010.40
2022-09-20T08:33:18.280Z,1010.47
2022-09-20T08:34:18.424Z,1010.66
2022-09-20T08:35:18.577Z,1010.72
2022-09-20T08:36:19.249Z,1010.72
2022-09-20T08:37:18.918Z,1010.75
2022-09-20T08:40:22.310Z,1011.04
2022-09-20T08:41:19.647Z,1011.07
2022-09-20T08:42:19.762Z,1011.20
2022-09-20T08:43:22.335Z,1011.22
2022-09-20T08:44:21.278Z,1011.33
2022-09-20T08:45:33.914Z,1011.33
2022-09-20T08:46:23.246Z,1011.34
2022-09-20T08:47:21.689Z,1011.37
2022-09-20T08:48:20.911Z,1011.34
2022-09-20T08:49:21.042Z,1011.32
2022-09-20T08:50:21.204Z,1011.38
2022-09-20T08:51:23.366Z,1011.37
2022-09-20T08:52:23.258Z,1011.37
2022-09-20T08:53:21.724Z,1011.36
2022-09-20T08:54:21.857Z,1011.37
2022-09-20T08:55:22.053Z,1011.36
2022-09-20T08:56:22.198Z,1011.35
2022-09-20T08:57:23.268Z,1011.40
2022-09-20T08:58:22.772Z,1011.41
2022-09-20T08:59:23.256Z,1011.37
2022-09-20T09:00:22.924Z,1011.41
2022-09-20T09:01:23.314Z,1011.43
2022-09-20T09:02:23.796Z,1011.47
2022-09-20T09:03:23.423Z,1011.41
2022-09-20T09:04:24.260Z,1011.40
2022-09-20T09:05:23.741Z,1011.51
2022-09-20T09:06:23.905Z,1011.49
2022-09-20T09:07:24.054Z,1011.50
2022-09-20T09:08:24.758Z,1011.48
2022-09-20T09:09:24.400Z,1011.39
2022-09-20T09:10:24.534Z,1011.33
2022-09-20T09:11:24.708Z,1011.37
2022-09-20T09:12:24.875Z,1011.23
2022-09-20T09:13:25.009Z,1011.25
2022-09-20T09:14:25.767Z,1011.19
2022-09-20T09:15:25.394Z,1011.11
2022-09-20T09:16:31.828Z,1011.18
2022-09-20T09:17:28.002Z,1011.12
2022-09-20T09:18:31.754Z,1011.10
2022-09-20T09:19:33.309Z,1011.05
2022-09-20T09:20:27.195Z,1011.00
2022-09-20T09:21:26.341Z,1010.95
2022-09-20T09:22:26.523Z,1011.03
2022-09-20T09:23:26.701Z,1011.00
2022-09-20T09:24:26.874Z,1010.96
2022-09-20T09:25:27.030Z,1011.02
2022-09-20T09:26:27.170Z,1011.04
2022-09-20T09:27:27.351Z,1010.96
2022-09-20T09:28:28.264Z,1010.96
2022-09-20T09:29:30.650Z,1010.94
2022-09-20T09:30:28.759Z,1010.95
2022-09-20T09:31:27.996Z,1010.89
2022-09-20T09:32:28.099Z,1010.83
2022-09-20T09:33:28.280Z,1010.82
2022-09-20T09:34:28.777Z,1010.87
2022-09-20T09:35:28.677Z,1010.84
2022-09-20T09:36:29.794Z,1010.78
2022-09-20T09:37:29.233Z,1010.74
2022-09-20T09:38:29.187Z,1010.76
2022-09-20T09:39:29.381Z,1010.81
2022-09-20T09:40:29.596Z,1010.86
2022-09-20T09:41:29.790Z,1010.93
2022-09-20T09:42:29.986Z,1010.84
2022-09-20T09:43:30.768Z,1010.93
2022-09-20T09:44:30.328Z,1010.96
2022-09-20T09:45:30.584Z,1010.99
2022-09-20T09:46:31.273Z,1011.09
2022-09-20T09:47:30.819Z,1011.19
2022-09-20T09:48:31.018Z,1011.22
2022-09-20T09:49:31.202Z,1011.27
2022-09-20T09:50:31.389Z,1011.36
2022-09-20T09:51:31.574Z,1011.46
2022-09-20T09:52:31.777Z,1011.45
2022-09-20T09:53:32.775Z,1011.48
2022-09-20T09:54:32.073Z,1011.50
2022-09-20T09:55:32.255Z,1011.51
2022-09-20T09:56:32.422Z,1011.47
2022-09-20T09:57:32.628Z,1011.53
2022-09-20T09:58:32.792Z,1011.49
2022-09-20T09:59:32.960Z,1011.54
2022-09-20T10:00:33.777Z,1011.40
2022-09-20T10:01:33.730Z,1011.34
2022-09-20T10:02:34.557Z,1011.21
2022-09-20T10:03:33.707Z,1011.15
2022-09-20T10:04:33.864Z,1010.98
2022-09-20T10:05:34.040Z,1010.96
2022-09-20T10:06:34.180Z,1010.98
2022-09-20T10:07:35.281Z,1010.98
2022-09-20T10:08:34.656Z,1011.01
2022-09-20T10:09:34.792Z,1010.99
2022-09-20T10:10:35.779Z,1011.01
2022-09-20T10:11:35.152Z,1011.04
2022-09-20T10:12:35.281Z,1011.12
2022-09-20T10:13:39.744Z,1011.13
2022-09-20T10:14:38.278Z,1011.19
2022-09-20T10:15:35.743Z,1011.16
2022-09-20T10:16:35.943Z,1011.20
2022-09-20T10:17:35.980Z,1011.26
2022-09-20T10:18:36.115Z,1011.18
2022-09-20T10:19:36.278Z,1011.30
2022-09-20T10:20:36.391Z,1011.34
2022-09-20T10:21:36.517Z,1011.33
2022-09-20T10:22:36.661Z,1011.44
2022-09-20T10:24:01.278Z,1011.52
2022-09-20T10:24:39.016Z,1011.52
2022-09-20T10:25:37.191Z,1011.61
2022-09-20T10:26:37.325Z,1011.60
2022-09-20T10:27:37.440Z,1011.69
2022-09-20T10:28:37.566Z,1011.71
2022-09-20T10:29:37.817Z,1011.68
2022-09-20T10:30:38.023Z,1011.73
2022-09-20T10:31:38.142Z,1011.68
2022-09-20T10:32:38.290Z,1011.69
2022-09-20T10:33:39.288Z,1011.69
2022-09-20T10:34:39.285Z,1011.65
2022-09-20T10:35:38.786Z,1011.68
2022-09-20T10:36:38.894Z,1011.67
2022-09-20T10:37:39.053Z,1011.67
2022-09-20T10:38:39.788Z,1011.73
2022-09-20T10:39:40.289Z,1011.64
2022-09-20T10:40:39.687Z,1011.60
2022-09-20T10:41:39.858Z,1011.49
2022-09-20T10:42:40.135Z,1011.28
2022-09-20T10:43:40.309Z,1011.09
2022-09-20T10:44:41.294Z,1010.78
2022-09-20T10:46:43.355Z,1010.36
2022-09-20T10:47:40.956Z,1010.31
2022-09-20T10:48:41.328Z,1009.99
2022-09-20T10:49:41.344Z,1009.76
2022-09-20T10:50:42.291Z,1009.63
2022-09-20T10:51:41.680Z,1009.35
2022-09-20T10:52:41.809Z,1009.34
2022-09-20T10:53:42.321Z,1009.35
2022-09-20T10:54:42.170Z,1009.12
2022-09-20T10:55:42.340Z,1009.06
2022-09-20T10:56:42.500Z,1008.88
2022-09-20T10:57:46.582Z,1008.76
2022-09-20T10:58:44.797Z,1008.67
2022-09-20T10:59:43.038Z,1008.65
2022-09-20T11:00:43.267Z,1008.67
2022-09-20T11:01:43.827Z,1008.85
2022-09-20T11:02:43.464Z,1008.83
2022-09-20T11:03:43.610Z,1008.81
2022-09-20T11:04:43.747Z,1008.72
2022-09-20T11:05:43.882Z,1008.71
2022-09-20T11:06:44.318Z,1008.76
2022-09-20T11:07:44.211Z,1008.75
2022-09-20T11:08:45.300Z,1008.76
2022-09-20T11:09:44.554Z,1008.80
2022-09-20T11:10:45.305Z,1008.86
2022-09-20T11:11:45.313Z,1008.96
2022-09-20T11:12:45.075Z,1008.98
2022-09-20T11:13:45.824Z,1009.14
2022-09-20T11:14:45.332Z,1009.11
2022-09-20T11:15:45.483Z,1009.20
2022-09-20T11:16:45.742Z,1009.34
2022-09-20T11:17:45.794Z,1009.39
2022-09-20T11:18:45.948Z,1009.47
2022-09-20T11:19:46.131Z,1009.51
2022-09-20T11:20:46.306Z,1009.51
2022-09-20T11:21:46.518Z,1009.56
2022-09-20T11:22:46.895Z,1009.65
2022-09-20T11:23:46.838Z,1009.71
2022-09-20T11:24:47.003Z,1009.68
2022-09-20T11:25:47.222Z,1009.74
2022-09-20T11:26:47.415Z,1009.80
2022-09-20T11:27:47.596Z,1009.80
2022-09-20T11:28:47.742Z,1009.90
2022-09-20T11:29:47.917Z,1009.89
2022-09-20T11:30:48.063Z,1009.83
2022-09-20T11:31:48.905Z,1009.88
2022-09-20T11:32:49.310Z,1009.86
2022-09-20T11:33:48.437Z,1009.90
2022-09-20T11:34:48.591Z,1009.90
2022-09-20T11:35:48.712Z,1009.90
2022-09-20T11:36:48.868Z,1009.97
2022-09-20T11:37:49.021Z,1009.95
2022-09-20T11:38:53.024Z,1009.97
2022-09-20T11:39:50.391Z,1010.03
2022-09-20T11:40:49.557Z,1010.04
2022-09-20T11:41:50.318Z,1010.03
2022-09-20T11:42:50.324Z,1010.07
2022-09-20T11:43:50.811Z,1010.11
2022-09-20T11:44:50.324Z,1010.13
2022-09-20T11:45:50.537Z,1010.11
2022-09-20T11:46:51.308Z,1010.14
2022-09-20T11:47:54.947Z,1010.12
2022-09-20T11:48:52.049Z,1010.11
2022-09-20T11:49:51.323Z,1010.08
2022-09-20T11:50:51.438Z,1009.97
2022-09-20T11:51:51.614Z,1009.97
2022-09-20T11:52:51.756Z,1009.95
2022-09-20T11:53:52.817Z,1009.96
2022-09-20T11:54:52.051Z,1009.97
2022-09-20T11:55:52.203Z,1009.97
2022-09-20T11:56:52.346Z,1009.94
2022-09-20T11:57:53.310Z,1009.97
2022-09-20T11:58:52.681Z,1010.00
2022-09-20T11:59:52.827Z,1009.91
2022-09-20T12:00:53.812Z,1009.97
2022-09-20T12:01:53.868Z,1009.97
2022-09-20T12:02:53.451Z,1010.08
2022-09-20T12:04:08.752Z,1010.09
2022-09-20T12:04:55.786Z,1010.08
2022-09-20T12:05:54.817Z,1010.07
2022-09-20T12:06:54.325Z,1010.16
2022-09-20T12:07:55.315Z,1010.08
2022-09-20T12:08:55.336Z,1010.06
2022-09-20T12:09:54.698Z,1010.06
2022-09-20T12:10:54.832Z,1010.01
2022-09-20T12:11:55.824Z,1009.92
2022-09-20T12:12:55.178Z,1009.87